Wichita Mid Continent Airport
KICT : rendu visible

Aérodrome :











RETROUVEZ-NOUS SUR...

 
LOGIN :

S'inscrire | Disclaimer

   EN    FR    IT 

 









Légende :    VFR   VFR Marginal   IFR   IFR Intensif   IFR Très Intensif
Visi : 
Plafond : 
>= 8 km
>= 3000ft
5 à 8 km
1000 à 3000 ft
1500m à 5 km
500 à 1000 ft
800 à 1500m
200 à 500 ft
< 800m
< 200 ft
Symboles :   Orages  Brouillard  Fortes neiges  Fortes précipitations  Vent > 20 kt







- Altitude de l'aérodrome : 1333 ft
- Code IATA : ICT


KICT - Wichita Mid Continent

DERNIER METAR :
  • 301353Z 22004KT 10SM SCT150 SCT220 21/14 A3005 RMK AO2 SLP165 T02060144

METARs EXPIRÉS :
  • 301253Z 22004KT 10SM SCT150 SCT250 18/14 A3003 RMK AO2 SLP159 T01830144
  • 301153Z 22004KT 10SM FEW070 SCT130 BKN250 17/14 A3003 RMK AO2 RAB1057E07 SLP159 P0000 60000 T01720144 10206 20172 53005

TAF KICT
Valide du 30 à 12h jusqu'au 31 à 12h UTC


301144Z 3012/3112 17008KT P6SM SCT150
FM302000 17011KT P6SM SCT050 SCT250
FM310000 16011KT P6SM SCT200
FM310800 17007KT P6SM VCTS SCT020 BKN040CB
FM311100 18011KT P6SM SCT020
FIR KZKC / Amérique du Nord



MET'MAP, la Météo Aéronautique d'un coup d'oeil ! - Copyright ORBIFLY Décembre 2007 - Disclaimer

ORBIFLY MET'MAP TEAM :

Programmation & Développement : Alexandra Zaïnal
Conception & Développement : Baudouin d'Aumeries
Co-Programmation & Développement : Marc-Olivier Méhu
Soutien technique & logistique : Manuel Goepfert

Contact : metmap@orbifly.com




SOURCES & CREDITS :

   NOAA       Earth
Advisory